Time;durP1;ratioP1;P1;durP2;ratioP2;P2;SDS_P1;SDS_P2;PMS_P1;PMS_P2;Temp;Humidity;BMP_temperature;BMP_pressure;BME280_temperature;BME280_humidity;BME280_pressure;Samples;Min_cycle;Max_cycle;Signal;HPM_P1;HPM_P2
2023/02/15 00:01:30;;;;;;;24.92;23.27;;;;;;;;;;5141112;27;20216;-80
2023/02/15 00:03:59;;;;;;;25.25;23.65;;;;;;;;;;5142335;27;20201;-81
2023/02/15 00:06:26;;;;;;;24.45;23.05;;;;;;;;;;5141755;27;20274;-81
2023/02/15 00:08:53;;;;;;;25.15;23.65;;;;;;;;;;5142324;27;20257;-81
2023/02/15 00:11:39;;;;;;;25.35;23.65;;;;;;;;;;5141462;27;20270;-81
2023/02/15 00:14:06;;;;;;;25.15;23.65;;;;;;;;;;5142119;27;20196;-80
2023/02/15 00:16:33;;;;;;;24.75;23.00;;;;;;;;;;5141166;27;20220;-81
2023/02/15 00:19:02;;;;;;;25.65;23.80;;;;;;;;;;5141744;27;20197;-81
2023/02/15 00:21:29;;;;;;;24.95;23.35;;;;;;;;;;5142217;28;20202;-81
2023/02/15 00:23:56;;;;;;;25.83;24.02;;;;;;;;;;5142419;28;20240;-81
2023/02/15 00:26:23;;;;;;;26.05;24.05;;;;;;;;;;5140319;27;20277;-81
2023/02/15 00:28:50;;;;;;;25.73;24.02;;;;;;;;;;5141713;28;20208;-80
2023/02/15 00:31:17;;;;;;;25.98;24.17;;;;;;;;;;5141535;28;20213;-81
2023/02/15 00:33:44;;;;;;;24.65;23.05;;;;;;;;;;5141991;28;20245;-80
2023/02/15 00:36:13;;;;;;;24.55;22.90;;;;;;;;;;5141879;28;20217;-80
2023/02/15 00:38:40;;;;;;;24.67;23.08;;;;;;;;;;5141091;28;20197;-80
2023/02/15 00:41:09;;;;;;;25.13;23.52;;;;;;;;;;5141919;28;20605;-81
2023/02/15 00:43:37;;;;;;;24.92;23.23;;;;;;;;;;5141756;28;20232;-80
2023/02/15 00:46:05;;;;;;;23.65;22.15;;;;;;;;;;5141970;28;20269;-81
2023/02/15 00:48:32;;;;;;;24.83;23.13;;;;;;;;;;5141329;28;20208;-81
2023/02/15 00:51:00;;;;;;;25.33;23.67;;;;;;;;;;5141755;28;20201;-80
2023/02/15 00:53:28;;;;;;;24.40;22.80;;;;;;;;;;5141482;28;20201;-81
2023/02/15 00:55:55;;;;;;;23.80;22.30;;;;;;;;;;5141728;28;20266;-81
2023/02/15 00:58:22;;;;;;;26.42;24.63;;;;;;;;;;5141777;28;20265;-80
2023/02/15 01:00:49;;;;;;;23.60;22.20;;;;;;;;;;5142154;28;20208;-80
2023/02/15 01:03:18;;;;;;;23.48;22.02;;;;;;;;;;5141973;28;20229;-80
2023/02/15 01:05:45;;;;;;;25.48;23.67;;;;;;;;;;5142116;28;20644;-81
2023/02/15 01:08:12;;;;;;;25.05;23.45;;;;;;;;;;5142444;28;20265;-81
2023/02/15 01:10:40;;;;;;;24.38;22.77;;;;;;;;;;5141713;28;20208;-80
2023/02/15 01:13:07;;;;;;;24.52;23.00;;;;;;;;;;5140892;28;20220;-81
2023/02/15 01:15:35;;;;;;;26.25;24.55;;;;;;;;;;5141953;28;20269;-81
2023/02/15 01:18:02;;;;;;;25.05;23.35;;;;;;;;;;5141482;28;20198;-81
2023/02/15 01:20:30;;;;;;;24.88;23.33;;;;;;;;;;5141282;28;20208;-80
2023/02/15 01:22:58;;;;;;;25.30;23.70;;;;;;;;;;5141902;28;20227;-81
2023/02/15 01:25:25;;;;;;;25.85;23.80;;;;;;;;;;5141585;28;20240;-81
2023/02/15 01:27:53;;;;;;;24.67;23.13;;;;;;;;;;5142532;28;20201;-81
2023/02/15 01:30:20;;;;;;;24.48;22.88;;;;;;;;;;5142071;28;20561;-81
2023/02/15 01:32:47;;;;;;;25.10;23.60;;;;;;;;;;5140234;28;20235;-81
2023/02/15 01:35:14;;;;;;;24.60;23.00;;;;;;;;;;5141912;28;20232;-81
2023/02/15 01:37:41;;;;;;;24.13;22.63;;;;;;;;;;5143832;27;20231;-81
2023/02/15 01:40:10;;;;;;;24.90;23.25;;;;;;;;;;5145734;27;20231;-80
2023/02/15 01:42:37;;;;;;;25.13;23.42;;;;;;;;;;5145362;27;20221;-80
2023/02/15 01:45:06;;;;;;;25.30;23.48;;;;;;;;;;5144737;27;20217;-81
2023/02/15 01:47:37;;;;;;;24.70;23.20;;;;;;;;;;5144901;27;20192;-80
2023/02/15 01:50:09;;;;;;;23.77;22.10;;;;;;;;;;5145635;27;20209;-81
2023/02/15 01:52:38;;;;;;;24.77;23.17;;;;;;;;;;5144717;27;20184;-80
2023/02/15 01:55:06;;;;;;;24.95;23.25;;;;;;;;;;5144699;27;20273;-81
2023/02/15 01:57:33;;;;;;;24.30;22.80;;;;;;;;;;5144840;27;20214;-81
2023/02/15 02:00:02;;;;;;;25.77;23.83;;;;;;;;;;5144992;27;20212;-80
2023/02/15 02:02:30;;;;;;;24.27;22.63;;;;;;;;;;5143954;27;20216;-81
2023/02/15 02:04:59;;;;;;;25.30;23.60;;;;;;;;;;5144302;27;20229;-81
2023/02/15 02:07:28;;;;;;;24.50;22.85;;;;;;;;;;5143803;27;20216;-81
2023/02/15 02:09:55;;;;;;;24.10;22.50;;;;;;;;;;5144533;27;20207;-81
2023/02/15 02:12:23;;;;;;;25.08;23.40;;;;;;;;;;5143963;27;20212;-81
2023/02/15 02:14:51;;;;;;;25.42;23.55;;;;;;;;;;5144451;27;20225;-81
2023/02/15 02:17:20;;;;;;;24.88;23.33;;;;;;;;;;5143433;27;20209;-80
2023/02/15 02:20:14;;;;;;;24.70;23.10;;;;;;;;;;5144613;27;20205;-81
2023/02/15 02:22:55;;;;;;;25.05;23.20;;;;;;;;;;5094446;27;20700;-81
2023/02/15 02:25:41;;;;;;;24.23;22.73;;;;;;;;;;5144159;27;20224;-81
2023/02/15 02:28:19;;;;;;;24.70;23.10;;;;;;;;;;5143990;27;20208;-80
2023/02/15 02:30:50;;;;;;;24.40;22.85;;;;;;;;;;5143725;27;20633;-80
2023/02/15 02:33:35;;;;;;;24.20;22.70;;;;;;;;;;5143724;27;20737;-81
2023/02/15 02:36:08;;;;;;;23.80;22.30;;;;;;;;;;5144003;27;20224;-81
2023/02/15 02:38:41;;;;;;;24.40;22.90;;;;;;;;;;5143014;27;20209;-80
2023/02/15 02:41:09;;;;;;;23.20;21.60;;;;;;;;;;5153040;27;20245;-80
2023/02/15 02:43:39;;;;;;;23.38;21.88;;;;;;;;;;5154244;27;20228;-81
2023/02/15 02:46:12;;;;;;;23.40;21.60;;;;;;;;;;5132332;27;20219;-81
2023/02/15 02:48:39;;;;;;;23.80;22.40;;;;;;;;;;5143965;27;20233;-81
2023/02/15 02:51:08;;;;;;;24.52;23.02;;;;;;;;;;5145023;27;20209;-81
2023/02/15 02:53:35;;;;;;;24.27;22.73;;;;;;;;;;5144194;27;20222;-81
2023/02/15 02:56:07;;;;;;;25.08;23.27;;;;;;;;;;5144413;27;20222;-82
2023/02/15 02:58:39;;;;;;;24.77;23.08;;;;;;;;;;5143758;27;20212;-80
2023/02/15 03:01:08;;;;;;;23.52;22.08;;;;;;;;;;5144800;27;20209;-80
2023/02/15 03:03:37;;;;;;;24.35;22.77;;;;;;;;;;5143874;27;20243;-81
2023/02/15 03:06:06;;;;;;;24.65;23.08;;;;;;;;;;5143786;27;20232;-81
2023/02/15 03:08:37;;;;;;;24.63;22.90;;;;;;;;;;5144113;27;20227;-80
2023/02/15 03:11:04;;;;;;;23.65;22.20;;;;;;;;;;5144464;27;20250;-81
2023/02/15 03:13:31;;;;;;;24.45;22.95;;;;;;;;;;5144388;27;20205;-81
2023/02/15 03:18:52;;;;;;;24.88;23.35;;;;;;;;;;5144003;27;20196;-80
2023/02/15 03:21:22;;;;;;;23.50;22.10;;;;;;;;;;5143110;27;20192;-82
2023/02/15 03:23:51;;;;;;;23.73;22.23;;;;;;;;;;5143313;27;20227;-80
2023/02/15 03:26:19;;;;;;;23.88;22.38;;;;;;;;;;5143498;27;20231;-81
2023/02/15 03:28:47;;;;;;;23.98;22.38;;;;;;;;;;5144269;27;20200;-81
2023/02/15 03:31:16;;;;;;;25.25;23.65;;;;;;;;;;5142801;27;20203;-82
2023/02/15 03:33:45;;;;;;;22.73;21.42;;;;;;;;;;5142716;27;20792;-81
2023/02/15 03:36:19;;;;;;;24.00;22.60;;;;;;;;;;5142990;27;20217;-81
2023/02/15 03:38:49;;;;;;;23.95;22.55;;;;;;;;;;5143413;27;20184;-81
2023/02/15 03:41:19;;;;;;;23.55;22.10;;;;;;;;;;5142721;27;20205;-81
2023/02/15 03:43:49;;;;;;;24.02;22.50;;;;;;;;;;5143655;27;20245;-81
2023/02/15 03:46:19;;;;;;;27.60;25.60;;;;;;;;;;5144086;27;20641;-81
2023/02/15 03:48:49;;;;;;;24.05;22.52;;;;;;;;;;5142886;27;20200;-81
2023/02/15 03:51:37;;;;;;;25.42;23.73;;;;;;;;;;5142308;27;20254;-81
2023/02/15 03:54:05;;;;;;;24.30;22.52;;;;;;;;;;5143109;27;20185;-81
2023/02/15 03:56:34;;;;;;;24.40;22.85;;;;;;;;;;5142477;27;20250;-80
2023/02/15 04:01:58;;;;;;;23.40;21.90;;;;;;;;;;5142433;27;20235;-81
2023/02/15 04:04:26;;;;;;;24.63;23.05;;;;;;;;;;5142854;27;20227;-81
2023/02/15 04:06:53;;;;;;;24.00;22.17;;;;;;;;;;5142375;27;20222;-80
2023/02/15 04:12:06;;;;;;;23.75;22.35;;;;;;;;;;5142863;27;20208;-81
2023/02/15 04:17:18;;;;;;;24.48;22.88;;;;;;;;;;5141816;27;20595;-81
2023/02/15 04:25:15;;;;;;;23.52;21.92;;;;;;;;;;5142183;28;20218;-81
2023/02/15 04:27:45;;;;;;;24.48;22.92;;;;;;;;;;5141799;27;20204;-81
2023/02/15 04:30:13;;;;;;;25.15;23.58;;;;;;;;;;5142341;28;20181;-81
2023/02/15 04:32:40;;;;;;;24.05;22.55;;;;;;;;;;5141618;28;20209;-81
2023/02/15 04:35:09;;;;;;;23.58;22.08;;;;;;;;;;5142581;28;20225;-81
2023/02/15 04:37:36;;;;;;;24.70;23.02;;;;;;;;;;5142496;27;20220;-81
2023/02/15 04:40:04;;;;;;;24.63;23.08;;;;;;;;;;5141973;28;20200;-81
2023/02/15 04:42:31;;;;;;;24.08;22.52;;;;;;;;;;5141512;28;20234;-81
2023/02/15 04:44:59;;;;;;;25.35;23.67;;;;;;;;;;5141769;28;20280;-81
2023/02/15 04:47:26;;;;;;;24.35;22.85;;;;;;;;;;5140741;27;20673;-81
2023/02/15 04:49:53;;;;;;;24.33;22.63;;;;;;;;;;5141875;28;20610;-81
2023/02/15 04:52:20;;;;;;;25.40;23.70;;;;;;;;;;5140806;28;20197;-81
2023/02/15 04:54:48;;;;;;;24.98;23.35;;;;;;;;;;5141047;28;20283;-81
2023/02/15 04:57:15;;;;;;;25.67;23.88;;;;;;;;;;5141335;27;20207;-81
2023/02/15 04:59:42;;;;;;;23.23;21.83;;;;;;;;;;5142029;28;20205;-81
2023/02/15 05:02:11;;;;;;;25.30;23.60;;;;;;;;;;5141144;28;20204;-81
2023/02/15 05:04:38;;;;;;;24.25;22.65;;;;;;;;;;5141835;28;20224;-82
2023/02/15 05:07:05;;;;;;;24.20;22.65;;;;;;;;;;5142029;28;20653;-81
2023/02/15 05:09:32;;;;;;;24.25;22.75;;;;;;;;;;5140739;27;20204;-81
2023/02/15 05:11:59;;;;;;;23.80;22.08;;;;;;;;;;5141431;27;20643;-81
2023/02/15 05:14:26;;;;;;;23.98;22.38;;;;;;;;;;5145615;27;20184;-81
2023/02/15 05:16:53;;;;;;;24.88;23.27;;;;;;;;;;5145059;27;20224;-81
2023/02/15 05:19:24;;;;;;;24.58;22.98;;;;;;;;;;5145415;27;20204;-81
2023/02/15 05:21:51;;;;;;;25.23;23.52;;;;;;;;;;5144862;27;20202;-82
2023/02/15 05:29:47;;;;;;;24.23;22.63;;;;;;;;;;5144536;27;20195;-81
2023/02/15 05:32:14;;;;;;;25.42;23.73;;;;;;;;;;5144120;27;20212;-81
2023/02/15 05:34:43;;;;;;;25.27;23.58;;;;;;;;;;5144358;27;20257;-80
2023/02/15 05:37:10;;;;;;;24.40;22.90;;;;;;;;;;5144693;27;20675;-82
2023/02/15 05:39:37;;;;;;;24.85;22.85;;;;;;;;;;5144750;27;20238;-81
2023/02/15 05:42:04;;;;;;;23.98;22.50;;;;;;;;;;5142625;27;20196;-81
2023/02/15 05:44:31;;;;;;;25.17;23.48;;;;;;;;;;5144266;27;20584;-81
2023/02/15 05:46:58;;;;;;;24.30;22.77;;;;;;;;;;5143914;27;20196;-81
2023/02/15 05:49:25;;;;;;;25.65;23.95;;;;;;;;;;5144370;27;20201;-82
2023/02/15 05:51:53;;;;;;;25.75;24.15;;;;;;;;;;5143968;27;20205;-81
2023/02/15 05:54:20;;;;;;;24.75;23.08;;;;;;;;;;5143665;27;20208;-81
2023/02/15 05:56:47;;;;;;;26.17;24.10;;;;;;;;;;5144213;27;20250;-81
2023/02/15 05:59:14;;;;;;;24.30;22.70;;;;;;;;;;5143980;27;20664;-82
2023/02/15 06:01:41;;;;;;;24.77;23.17;;;;;;;;;;5143350;27;20249;-81
2023/02/15 06:04:09;;;;;;;25.80;23.80;;;;;;;;;;5144415;27;20265;-81
2023/02/15 06:06:36;;;;;;;25.83;23.98;;;;;;;;;;5142932;27;20700;-82
2023/02/15 06:09:04;;;;;;;25.25;23.55;;;;;;;;;;5144252;27;20205;-81
2023/02/15 06:11:31;;;;;;;25.40;23.55;;;;;;;;;;5143635;27;20664;-82
2023/02/15 06:13:58;;;;;;;25.30;23.35;;;;;;;;;;5143555;27;20257;-81
2023/02/15 06:16:25;;;;;;;24.55;22.83;;;;;;;;;;5143116;27;20248;-81
2023/02/15 06:18:52;;;;;;;24.52;22.90;;;;;;;;;;5143686;27;20192;-81
2023/02/15 06:21:19;;;;;;;25.70;23.83;;;;;;;;;;5143009;27;20596;-82
2023/02/15 06:23:46;;;;;;;24.35;22.75;;;;;;;;;;5143607;27;20224;-81
2023/02/15 06:26:14;;;;;;;25.27;23.52;;;;;;;;;;5143329;27;20245;-81
2023/02/15 06:28:41;;;;;;;24.40;22.50;;;;;;;;;;5142611;27;20684;-81
2023/02/15 06:31:08;;;;;;;24.83;23.02;;;;;;;;;;5142466;27;20208;-81
2023/02/15 06:33:35;;;;;;;25.50;23.50;;;;;;;;;;5143144;27;20200;-81
2023/02/15 06:36:03;;;;;;;25.02;23.27;;;;;;;;;;5143172;27;20280;-81
2023/02/15 06:38:30;;;;;;;25.73;24.02;;;;;;;;;;5141853;27;20291;-81
2023/02/15 06:40:57;;;;;;;26.08;24.27;;;;;;;;;;5143918;27;20230;-81
2023/02/15 06:43:25;;;;;;;25.73;23.92;;;;;;;;;;5142494;27;20201;-81
2023/02/15 06:45:52;;;;;;;25.40;23.65;;;;;;;;;;5142861;27;20224;-81
2023/02/15 06:48:19;;;;;;;26.33;24.63;;;;;;;;;;5143590;27;20249;-81
2023/02/15 06:50:46;;;;;;;26.08;24.17;;;;;;;;;;5142553;27;20570;-80
2023/02/15 06:53:13;;;;;;;26.20;24.58;;;;;;;;;;5139949;27;20204;-80
2023/02/15 06:55:40;;;;;;;25.88;24.08;;;;;;;;;;5138707;27;20228;-79
2023/02/15 06:58:07;;;;;;;25.38;23.70;;;;;;;;;;5139109;27;20249;-80
2023/02/15 07:00:36;;;;;;;25.92;24.27;;;;;;;;;;5139551;27;20212;-79
2023/02/15 07:03:03;;;;;;;25.05;23.10;;;;;;;;;;5139450;27;20205;-79
2023/02/15 07:05:30;;;;;;;26.10;24.23;;;;;;;;;;5139083;27;20229;-81
2023/02/15 07:07:57;;;;;;;25.10;23.30;;;;;;;;;;5138654;27;20573;-79
2023/02/15 07:10:25;;;;;;;27.65;25.70;;;;;;;;;;5139745;27;20257;-79
2023/02/15 07:12:51;;;;;;;27.02;24.77;;;;;;;;;;5138723;27;20219;-80
2023/02/15 07:15:20;;;;;;;26.45;24.67;;;;;;;;;;5139662;27;20217;-80
2023/02/15 07:17:48;;;;;;;25.58;23.83;;;;;;;;;;5138690;27;20226;-79
2023/02/15 07:20:16;;;;;;;25.80;23.90;;;;;;;;;;5139456;27;20231;-80
2023/02/15 07:22:43;;;;;;;26.35;24.27;;;;;;;;;;5138322;27;20231;-80
2023/02/15 07:25:11;;;;;;;25.58;23.83;;;;;;;;;;5138365;27;20228;-79
2023/02/15 07:27:38;;;;;;;26.40;24.60;;;;;;;;;;5138487;27;20240;-81
2023/02/15 07:30:06;;;;;;;26.77;24.45;;;;;;;;;;5138775;27;20213;-78
2023/02/15 07:32:33;;;;;;;25.20;23.45;;;;;;;;;;5137857;27;20208;-79
2023/02/15 07:35:01;;;;;;;27.83;25.73;;;;;;;;;;5138252;27;20216;-79
2023/02/15 07:37:29;;;;;;;27.67;25.48;;;;;;;;;;5139249;27;20212;-80
2023/02/15 07:39:56;;;;;;;26.92;24.90;;;;;;;;;;5138934;27;20210;-80
2023/02/15 07:42:23;;;;;;;27.00;24.92;;;;;;;;;;5137753;27;20197;-80
2023/02/15 07:44:50;;;;;;;28.65;26.50;;;;;;;;;;5137961;27;20232;-80
2023/02/15 07:47:17;;;;;;;27.42;25.42;;;;;;;;;;5138510;27;20204;-80
2023/02/15 07:49:44;;;;;;;26.90;24.90;;;;;;;;;;5138847;27;20230;-80
2023/02/15 07:52:12;;;;;;;27.08;25.08;;;;;;;;;;5138562;27;20212;-79
2023/02/15 07:54:39;;;;;;;26.23;24.33;;;;;;;;;;5138285;27;20195;-80
2023/02/15 07:57:07;;;;;;;26.83;24.85;;;;;;;;;;5137195;27;20210;-80
2023/02/15 07:59:34;;;;;;;27.73;25.77;;;;;;;;;;5138119;27;20200;-78
2023/02/15 08:02:01;;;;;;;26.80;24.80;;;;;;;;;;5137549;27;20259;-79
2023/02/15 08:04:27;;;;;;;28.25;26.17;;;;;;;;;;5137906;27;20688;-79
2023/02/15 08:06:55;;;;;;;27.80;25.92;;;;;;;;;;5137233;27;20827;-80
2023/02/15 08:09:23;;;;;;;27.17;25.00;;;;;;;;;;5138638;27;20219;-79
2023/02/15 08:11:50;;;;;;;27.90;25.80;;;;;;;;;;5137204;27;20241;-80
2023/02/15 08:14:18;;;;;;;27.88;25.70;;;;;;;;;;5138215;27;20208;-80
2023/02/15 08:16:46;;;;;;;29.38;27.25;;;;;;;;;;5137760;27;20224;-80
2023/02/15 08:19:14;;;;;;;28.77;26.77;;;;;;;;;;5137996;27;20189;-80
2023/02/15 08:21:42;;;;;;;27.85;26.05;;;;;;;;;;5137446;27;20209;-80
2023/02/15 08:24:10;;;;;;;27.83;25.83;;;;;;;;;;5137567;28;20270;-80
2023/02/15 08:26:39;;;;;;;27.42;25.60;;;;;;;;;;5136841;27;20228;-79
2023/02/15 08:29:06;;;;;;;28.30;26.40;;;;;;;;;;5138288;28;20559;-80
2023/02/15 08:31:34;;;;;;;29.02;27.02;;;;;;;;;;5136177;27;20219;-79
2023/02/15 08:34:01;;;;;;;28.88;26.88;;;;;;;;;;5137640;28;20204;-79
2023/02/15 08:36:29;;;;;;;28.80;26.58;;;;;;;;;;5137599;28;20224;-79
2023/02/15 08:38:56;;;;;;;27.88;25.95;;;;;;;;;;5137780;28;20228;-79
2023/02/15 08:41:23;;;;;;;27.90;25.83;;;;;;;;;;5136749;27;20331;-80
2023/02/15 08:43:53;;;;;;;28.77;26.58;;;;;;;;;;5137535;28;20205;-80
2023/02/15 08:46:20;;;;;;;29.45;27.15;;;;;;;;;;5139947;27;20216;-79
2023/02/15 08:48:47;;;;;;;27.80;25.80;;;;;;;;;;5141409;27;20234;-79
2023/02/15 08:51:15;;;;;;;30.20;27.90;;;;;;;;;;5140822;27;20204;-80
2023/02/15 08:53:43;;;;;;;29.42;27.13;;;;;;;;;;5140461;27;20212;-79
2023/02/15 08:56:11;;;;;;;29.60;27.30;;;;;;;;;;5141013;27;20703;-79
2023/02/15 08:58:38;;;;;;;29.13;26.83;;;;;;;;;;5142063;27;20245;-79
2023/02/15 09:01:11;;;;;;;30.10;27.83;;;;;;;;;;5141194;27;20616;-79
2023/02/15 09:03:38;;;;;;;29.05;26.95;;;;;;;;;;5141660;27;20184;-80
2023/02/15 09:06:06;;;;;;;30.23;27.88;;;;;;;;;;5141147;27;20228;-79
2023/02/15 09:08:33;;;;;;;28.85;26.45;;;;;;;;;;5142002;27;20235;-79
2023/02/15 09:11:07;;;;;;;30.88;28.45;;;;;;;;;;5141664;27;20226;-80
2023/02/15 09:13:34;;;;;;;29.15;26.77;;;;;;;;;;5140595;27;20213;-79
2023/02/15 09:16:01;;;;;;;29.48;27.17;;;;;;;;;;5140604;27;20228;-79
2023/02/15 09:18:30;;;;;;;28.75;26.40;;;;;;;;;;5141096;27;20294;-79
2023/02/15 09:20:57;;;;;;;29.92;27.35;;;;;;;;;;5141003;27;20204;-80
2023/02/15 09:23:24;;;;;;;28.15;25.98;;;;;;;;;;5141110;27;20254;-79
2023/02/15 09:25:51;;;;;;;29.83;26.92;;;;;;;;;;5140464;27;20241;-80
2023/02/15 09:28:18;;;;;;;29.85;27.40;;;;;;;;;;5141067;27;20182;-79
2023/02/15 09:30:45;;;;;;;30.15;27.75;;;;;;;;;;5140562;27;20201;-79
2023/02/15 09:33:12;;;;;;;29.02;26.42;;;;;;;;;;5139749;27;20201;-79
2023/02/15 09:35:41;;;;;;;28.85;26.45;;;;;;;;;;5140398;27;20246;-81
2023/02/15 09:38:09;;;;;;;28.73;26.50;;;;;;;;;;5140139;27;20228;-80
2023/02/15 09:40:44;;;;;;;29.10;26.73;;;;;;;;;;5140832;27;20209;-79
2023/02/15 09:43:23;;;;;;;25.75;23.83;;;;;;;;;;5140437;27;20517;-80
2023/02/15 09:45:56;;;;;;;29.35;27.00;;;;;;;;;;5140596;27;20225;-79
2023/02/15 09:48:31;;;;;;;27.88;25.85;;;;;;;;;;5140820;27;20186;-79
2023/02/15 09:51:05;;;;;;;28.23;26.10;;;;;;;;;;5141286;27;20305;-79
2023/02/15 09:53:39;;;;;;;29.83;27.33;;;;;;;;;;5140696;27;20181;-79
2023/02/15 09:56:11;;;;;;;30.88;28.55;;;;;;;;;;5140089;27;20223;-79
2023/02/15 09:58:44;;;;;;;28.02;26.02;;;;;;;;;;5140225;27;20216;-79
2023/02/15 10:01:14;;;;;;;29.92;27.63;;;;;;;;;;5140867;27;20185;-81
2023/02/15 10:03:46;;;;;;;28.58;26.35;;;;;;;;;;5141388;27;20259;-80
2023/02/15 10:06:31;;;;;;;29.33;27.02;;;;;;;;;;5140413;27;20290;-79
2023/02/15 10:09:04;;;;;;;27.95;25.92;;;;;;;;;;5140477;27;20209;-80
2023/02/15 10:11:42;;;;;;;28.33;26.05;;;;;;;;;;5140545;27;20238;-80
2023/02/15 10:14:37;;;;;;;29.50;27.10;;;;;;;;;;5140054;27;20629;-79
2023/02/15 10:17:08;;;;;;;28.83;26.63;;;;;;;;;;5140347;27;20551;-80
2023/02/15 10:19:40;;;;;;;29.70;27.17;;;;;;;;;;5140638;27;20215;-80
2023/02/15 10:22:14;;;;;;;29.63;27.35;;;;;;;;;;5139718;27;20242;-80
2023/02/15 10:24:48;;;;;;;29.85;27.35;;;;;;;;;;5140129;27;20191;-80
2023/02/15 10:27:16;;;;;;;29.63;27.30;;;;;;;;;;5140246;27;20186;-81
2023/02/15 10:29:49;;;;;;;30.63;28.17;;;;;;;;;;5140195;27;20209;-87
2023/02/15 10:32:23;;;;;;;28.33;26.13;;;;;;;;;;5139919;27;20238;-79
2023/02/15 10:34:52;;;;;;;29.30;26.77;;;;;;;;;;5140164;27;20239;-79
2023/02/15 10:37:45;;;;;;;28.13;25.83;;;;;;;;;;5139937;27;20201;-80
2023/02/15 10:40:16;;;;;;;29.30;27.05;;;;;;;;;;5140346;27;20466;-79
2023/02/15 10:42:51;;;;;;;29.73;27.30;;;;;;;;;;5139846;27;20211;-80
2023/02/15 10:45:23;;;;;;;29.42;26.92;;;;;;;;;;5137937;27;20229;-81
2023/02/15 10:47:57;;;;;;;32.67;30.08;;;;;;;;;;5139983;27;20194;-79
2023/02/15 10:50:45;;;;;;;30.77;27.97;;;;;;;;;;5139120;27;20205;-80
2023/02/15 10:53:18;;;;;;;31.90;28.65;;;;;;;;;;5132820;27;20421;-79
2023/02/15 10:55:53;;;;;;;31.13;28.43;;;;;;;;;;5139748;27;20221;-80
2023/02/15 10:58:25;;;;;;;31.13;28.63;;;;;;;;;;5140137;27;20483;-79
2023/02/15 11:00:59;;;;;;;33.78;30.67;;;;;;;;;;5138935;27;20466;-79
2023/02/15 11:03:32;;;;;;;32.67;29.67;;;;;;;;;;5137264;27;20185;-80
2023/02/15 11:06:02;;;;;;;33.30;30.33;;;;;;;;;;5139673;27;20964;-80
2023/02/15 11:08:31;;;;;;;31.87;29.00;;;;;;;;;;5140096;27;20406;-80
2023/02/15 11:11:01;;;;;;;32.80;29.90;;;;;;;;;;5139678;27;20459;-80
2023/02/15 11:13:33;;;;;;;31.97;29.30;;;;;;;;;;5139215;27;20469;-80
2023/02/15 11:16:02;;;;;;;33.07;30.17;;;;;;;;;;5138698;27;20510;-80
2023/02/15 11:18:32;;;;;;;32.00;29.40;;;;;;;;;;5139201;27;20425;-80
2023/02/15 11:21:02;;;;;;;35.03;31.63;;;;;;;;;;5139437;27;20406;-79
2023/02/15 11:23:30;;;;;;;33.63;30.63;;;;;;;;;;5139129;27;20483;-80
2023/02/15 11:26:01;;;;;;;34.93;32.03;;;;;;;;;;5138625;27;20631;-80
2023/02/15 11:28:31;;;;;;;34.17;31.00;;;;;;;;;;5139458;27;20486;-84
2023/02/15 11:31:00;;;;;;;32.57;29.73;;;;;;;;;;5139000;27;20404;-79
2023/02/15 11:33:29;;;;;;;33.13;30.07;;;;;;;;;;5138614;27;20817;-79
2023/02/15 11:35:59;;;;;;;35.43;32.07;;;;;;;;;;5139346;27;20955;-80
2023/02/15 11:38:29;;;;;;;33.70;30.77;;;;;;;;;;5138999;27;20443;-79
2023/02/15 11:40:58;;;;;;;35.13;31.90;;;;;;;;;;5138434;27;20526;-79
2023/02/15 11:43:29;;;;;;;33.23;30.60;;;;;;;;;;5137331;27;20444;-80
2023/02/15 11:45:57;;;;;;;34.53;31.27;;;;;;;;;;5138359;27;20950;-80
2023/02/15 11:48:24;;;;;;;35.73;32.83;;;;;;;;;;5138970;27;20440;-79
2023/02/15 11:50:51;;;;;;;36.33;32.90;;;;;;;;;;5138486;27;20934;-79
2023/02/15 11:53:20;;;;;;;37.13;33.13;;;;;;;;;;5136658;27;20429;-79
2023/02/15 11:55:48;;;;;;;35.07;31.90;;;;;;;;;;5138370;27;20477;-80
2023/02/15 11:58:22;;;;;;;35.23;32.00;;;;;;;;;;5138256;27;20482;-79
2023/02/15 12:00:53;;;;;;;36.37;32.67;;;;;;;;;;5138274;27;20405;-79
2023/02/15 12:03:24;;;;;;;37.00;33.03;;;;;;;;;;5138175;27;20444;-80
2023/02/15 12:05:53;;;;;;;38.00;34.23;;;;;;;;;;5137522;27;20490;-79
2023/02/15 12:08:21;;;;;;;37.40;33.40;;;;;;;;;;5138307;27;20469;-80
2023/02/15 12:10:55;;;;;;;41.00;37.07;;;;;;;;;;5138208;27;20533;-80
2023/02/15 12:13:23;;;;;;;38.30;34.30;;;;;;;;;;5137557;27;20425;-79
2023/02/15 12:15:52;;;;;;;37.07;33.47;;;;;;;;;;5137108;27;20605;-80
2023/02/15 12:18:21;;;;;;;36.77;33.37;;;;;;;;;;5137570;27;20395;-80
2023/02/15 12:20:48;;;;;;;38.83;35.23;;;;;;;;;;5137876;27;20441;-80
2023/02/15 12:23:16;;;;;;;38.40;35.10;;;;;;;;;;5137923;27;20426;-79
2023/02/15 12:25:45;;;;;;;37.13;33.63;;;;;;;;;;5137690;27;20452;-79
2023/02/15 12:28:23;;;;;;;39.27;35.87;;;;;;;;;;5138486;28;20457;-79
2023/02/15 12:30:52;;;;;;;36.77;33.13;;;;;;;;;;5137300;28;20454;-79
2023/02/15 12:33:25;;;;;;;39.73;35.80;;;;;;;;;;5134646;28;20461;-79
2023/02/15 12:35:56;;;;;;;38.20;34.50;;;;;;;;;;5139452;28;20457;-87
2023/02/15 12:38:25;;;;;;;38.83;35.20;;;;;;;;;;5139050;28;20814;-89
2023/02/15 12:40:59;;;;;;;38.30;34.63;;;;;;;;;;5140257;28;20476;-85
2023/02/15 12:43:27;;;;;;;38.03;34.23;;;;;;;;;;5138116;28;20384;-87
2023/02/15 12:46:14;;;;;;;38.17;34.40;;;;;;;;;;5135797;27;20518;-90
2023/02/15 12:48:41;;;;;;;36.40;33.00;;;;;;;;;;5136969;28;20453;-88
2023/02/15 12:51:09;;;;;;;36.70;33.30;;;;;;;;;;5138055;28;20408;-88
2023/02/15 12:53:37;;;;;;;39.00;34.80;;;;;;;;;;5139024;28;20432;-88
2023/02/15 12:56:05;;;;;;;39.90;35.70;;;;;;;;;;5138845;27;20480;-88
2023/02/15 12:58:32;;;;;;;38.27;34.77;;;;;;;;;;5137912;28;20406;-87
2023/02/15 13:01:12;;;;;;;37.87;33.90;;;;;;;;;;5137439;28;20403;-89
2023/02/15 13:03:40;;;;;;;37.97;34.27;;;;;;;;;;5141729;28;20424;-88
2023/02/15 13:06:08;;;;;;;38.33;34.43;;;;;;;;;;5137335;28;20456;-88
2023/02/15 13:08:37;;;;;;;37.50;33.93;;;;;;;;;;5136828;27;20517;-89
2023/02/15 13:11:05;;;;;;;36.90;33.53;;;;;;;;;;5137832;28;20468;-88
2023/02/15 13:13:33;;;;;;;36.50;33.00;;;;;;;;;;5138882;27;20430;-88
2023/02/15 13:16:01;;;;;;;39.40;35.50;;;;;;;;;;5137801;28;20515;-89
2023/02/15 13:18:33;;;;;;;37.93;34.40;;;;;;;;;;5135702;27;20476;-86
2023/02/15 13:21:06;;;;;;;39.00;35.10;;;;;;;;;;5136850;28;20471;-88
2023/02/15 13:23:34;;;;;;;38.30;34.63;;;;;;;;;;5136530;28;20426;-86
2023/02/15 13:26:04;;;;;;;37.90;34.20;;;;;;;;;;5137211;28;20520;-88
2023/02/15 13:28:35;;;;;;;38.57;34.83;;;;;;;;;;5135736;27;20486;-88
2023/02/15 13:31:02;;;;;;;37.53;33.73;;;;;;;;;;5135306;28;20432;-87
2023/02/15 13:33:32;;;;;;;37.27;33.87;;;;;;;;;;5137828;27;20422;-87
2023/02/15 13:36:04;;;;;;;39.07;35.20;;;;;;;;;;5140911;27;20473;-88
2023/02/15 13:38:49;;;;;;;38.53;34.47;;;;;;;;;;5141157;27;20469;-88
2023/02/15 13:41:17;;;;;;;37.87;34.13;;;;;;;;;;5140775;27;20439;-88
2023/02/15 13:43:49;;;;;;;36.73;33.03;;;;;;;;;;5142881;27;20443;-87
2023/02/15 13:46:22;;;;;;;34.63;31.47;;;;;;;;;;5140265;27;20485;-88
2023/02/15 13:48:53;;;;;;;37.67;33.97;;;;;;;;;;5142237;27;20842;-81
2023/02/15 13:51:23;;;;;;;38.57;34.83;;;;;;;;;;5141377;27;20417;-81
2023/02/15 13:53:59;;;;;;;39.27;35.27;;;;;;;;;;5142835;27;20573;-89
2023/02/15 13:56:31;;;;;;;37.03;33.33;;;;;;;;;;5141739;27;20483;-80
2023/02/15 13:59:07;;;;;;;36.53;32.90;;;;;;;;;;5142108;27;20439;-81
2023/02/15 14:01:38;;;;;;;37.73;34.13;;;;;;;;;;5145920;27;20446;-87
2023/02/15 14:04:24;;;;;;;35.73;32.40;;;;;;;;;;5142556;27;20467;-77
2023/02/15 14:07:07;;;;;;;36.30;32.40;;;;;;;;;;5139604;27;20480;-87
2023/02/15 14:09:42;;;;;;;37.50;33.60;;;;;;;;;;5140532;27;20483;-87
2023/02/15 14:12:21;;;;;;;34.43;31.33;;;;;;;;;;5139376;27;20557;-87
2023/02/15 14:14:56;;;;;;;35.00;31.70;;;;;;;;;;5140787;27;20500;-80
2023/02/15 14:17:27;;;;;;;35.63;32.13;;;;;;;;;;5140025;27;21139;-79
2023/02/15 14:19:58;;;;;;;37.33;33.70;;;;;;;;;;5140520;27;20437;-79
2023/02/15 14:22:31;;;;;;;36.63;32.90;;;;;;;;;;5139463;27;20440;-79
2023/02/15 14:25:04;;;;;;;36.30;32.87;;;;;;;;;;5140609;27;20473;-79
2023/02/15 14:27:40;;;;;;;35.37;31.73;;;;;;;;;;5139255;27;20537;-79
2023/02/15 14:30:16;;;;;;;35.47;32.03;;;;;;;;;;5135685;27;20428;-83
2023/02/15 14:32:45;;;;;;;35.20;31.90;;;;;;;;;;5118859;28;20551;-78
2023/02/15 14:35:16;;;;;;;36.43;32.73;;;;;;;;;;5117840;28;20530;-78
2023/02/15 14:37:44;;;;;;;35.40;32.07;;;;;;;;;;5118414;28;20426;-79
2023/02/15 14:43:06;;;;;;;39.17;35.37;;;;;;;;;;5118240;28;20406;-78
2023/02/15 14:45:42;;;;;;;36.47;33.17;;;;;;;;;;5118267;28;20486;-79
2023/02/15 14:48:12;;;;;;;38.77;34.77;;;;;;;;;;5121357;28;20464;-82
2023/02/15 14:50:42;;;;;;;35.47;32.37;;;;;;;;;;5124122;28;20447;-83
2023/02/15 14:53:26;;;;;;;35.27;31.80;;;;;;;;;;5124186;28;20450;-83
2023/02/15 14:56:07;;;;;;;34.77;31.37;;;;;;;;;;5125213;28;20455;-83